Gentryville, Missouri
Current Conditions -  °F | °C
As of 9:53 PM on Tuesday 27 Jan 2015 (Local Time) from KLWD Reporting Station
Clear Clear  
Wind Chill: 30°   Ceiling: Unl
Heat Index: 36°   Visibility: 10mi
Dew Point: 29°   Wind: 7mph
Humidity: 76%   Direction: 130°SE
Pressure: 30.11"   Gusts: NA
Location:  40.2703°N, 94.321°W
Report Text: KLWD 280353Z AUTO 13006KT 10SM CLR 02/M02 A3011 RMK AO2 SLP204 T00221017
Loading
Personal Weather Stations






























Interactive Weather Map New forecast layout! Learn more

10-Day Weather Forecast

Advertisements
Track Severe Weather on mobile